sensor_id;sensor_type;location;lat;lon;timestamp;P1;durP1;ratioP1;P2;durP2;ratioP2
3249;SDS011;1637;42.020;23.992;2023-09-07T00:00:42;21.20;;;16.70;;
3249;SDS011;1637;42.020;23.992;2023-09-07T00:03:08;25.30;;;17.20;;
3249;SDS011;1637;42.020;23.992;2023-09-07T00:05:35;21.90;;;16.20;;
3249;SDS011;1637;42.020;23.992;2023-09-07T00:08:02;21.63;;;16.20;;
3249;SDS011;1637;42.020;23.992;2023-09-07T00:10:29;23.23;;;18.03;;
3249;SDS011;1637;42.020;23.992;2023-09-07T00:12:58;25.83;;;18.53;;
3249;SDS011;1637;42.020;23.992;2023-09-07T00:15:24;28.70;;;17.57;;
3249;SDS011;1637;42.020;23.992;2023-09-07T00:17:51;21.90;;;16.63;;
3249;SDS011;1637;42.020;23.992;2023-09-07T00:20:18;21.80;;;17.20;;
3249;SDS011;1637;42.020;23.992;2023-09-07T00:22:46;27.90;;;18.63;;
3249;SDS011;1637;42.020;23.992;2023-09-07T00:25:13;20.53;;;16.83;;
3249;SDS011;1637;42.020;23.992;2023-09-07T00:27:40;26.77;;;18.10;;
3249;SDS011;1637;42.020;23.992;2023-09-07T00:30:09;23.10;;;18.30;;
3249;SDS011;1637;42.020;23.992;2023-09-07T00:32:36;21.63;;;16.93;;
3249;SDS011;1637;42.020;23.992;2023-09-07T00:35:04;21.57;;;17.80;;
3249;SDS011;1637;42.020;23.992;2023-09-07T00:37:32;27.33;;;19.27;;
3249;SDS011;1637;42.020;23.992;2023-09-07T00:39:58;27.93;;;19.57;;
3249;SDS011;1637;42.020;23.992;2023-09-07T00:42:25;28.53;;;19.17;;
3249;SDS011;1637;42.020;23.992;2023-09-07T00:44:53;26.20;;;18.73;;
3249;SDS011;1637;42.020;23.992;2023-09-07T00:47:21;24.50;;;19.10;;
3249;SDS011;1637;42.020;23.992;2023-09-07T00:49:48;25.10;;;19.60;;
3249;SDS011;1637;42.020;23.992;2023-09-07T00:52:16;21.33;;;16.57;;
3249;SDS011;1637;42.020;23.992;2023-09-07T00:54:44;19.20;;;14.97;;
3249;SDS011;1637;42.020;23.992;2023-09-07T00:57:11;24.10;;;14.27;;
3249;SDS011;1637;42.020;23.992;2023-09-07T00:59:38;19.13;;;14.73;;
3249;SDS011;1637;42.020;23.992;2023-09-07T01:02:05;20.20;;;12.80;;
3249;SDS011;1637;42.020;23.992;2023-09-07T01:04:33;19.37;;;13.80;;
3249;SDS011;1637;42.020;23.992;2023-09-07T01:07:02;23.63;;;12.90;;
3249;SDS011;1637;42.020;23.992;2023-09-07T01:09:30;15.70;;;12.20;;
3249;SDS011;1637;42.020;23.992;2023-09-07T01:12:02;14.57;;;12.03;;
3249;SDS011;1637;42.020;23.992;2023-09-07T01:14:29;18.97;;;12.07;;
3249;SDS011;1637;42.020;23.992;2023-09-07T01:16:56;46.93;;;25.30;;
3249;SDS011;1637;42.020;23.992;2023-09-07T01:19:23;24.50;;;17.40;;
3249;SDS011;1637;42.020;23.992;2023-09-07T01:21:52;33.33;;;21.13;;
3249;SDS011;1637;42.020;23.992;2023-09-07T01:24:19;26.57;;;20.60;;
3249;SDS011;1637;42.020;23.992;2023-09-07T01:26:47;32.63;;;20.57;;
3249;SDS011;1637;42.020;23.992;2023-09-07T01:29:15;26.97;;;20.07;;
3249;SDS011;1637;42.020;23.992;2023-09-07T01:31:43;29.83;;;19.97;;
3249;SDS011;1637;42.020;23.992;2023-09-07T01:34:09;23.60;;;17.20;;
3249;SDS011;1637;42.020;23.992;2023-09-07T01:36:36;30.93;;;19.73;;
3249;SDS011;1637;42.020;23.992;2023-09-07T01:39:05;22.03;;;17.97;;
3249;SDS011;1637;42.020;23.992;2023-09-07T01:41:33;23.87;;;19.37;;
3249;SDS011;1637;42.020;23.992;2023-09-07T01:44:00;23.50;;;17.20;;
3249;SDS011;1637;42.020;23.992;2023-09-07T01:46:27;20.40;;;15.23;;
3249;SDS011;1637;42.020;23.992;2023-09-07T01:48:54;22.37;;;14.23;;
3249;SDS011;1637;42.020;23.992;2023-09-07T01:51:20;19.30;;;14.57;;
3249;SDS011;1637;42.020;23.992;2023-09-07T01:53:47;17.37;;;13.93;;
3249;SDS011;1637;42.020;23.992;2023-09-07T01:56:16;18.07;;;13.40;;
3249;SDS011;1637;42.020;23.992;2023-09-07T01:58:43;18.20;;;13.73;;
3249;SDS011;1637;42.020;23.992;2023-09-07T02:01:19;21.73;;;14.27;;
3249;SDS011;1637;42.020;23.992;2023-09-07T02:03:47;17.60;;;14.37;;
3249;SDS011;1637;42.020;23.992;2023-09-07T02:06:14;19.20;;;14.50;;
3249;SDS011;1637;42.020;23.992;2023-09-07T02:08:41;16.93;;;14.67;;
3249;SDS011;1637;42.020;23.992;2023-09-07T02:11:08;23.53;;;16.00;;
3249;SDS011;1637;42.020;23.992;2023-09-07T02:13:36;22.80;;;14.83;;
3249;SDS011;1637;42.020;23.992;2023-09-07T02:16:03;19.73;;;15.30;;
3249;SDS011;1637;42.020;23.992;2023-09-07T02:18:31;25.40;;;14.70;;
3249;SDS011;1637;42.020;23.992;2023-09-07T02:21:01;22.30;;;16.57;;
3249;SDS011;1637;42.020;23.992;2023-09-07T02:23:28;22.60;;;16.80;;
3249;SDS011;1637;42.020;23.992;2023-09-07T02:25:55;22.93;;;16.37;;
3249;SDS011;1637;42.020;23.992;2023-09-07T02:28:23;20.83;;;17.03;;
3249;SDS011;1637;42.020;23.992;2023-09-07T02:30:51;22.40;;;17.00;;
3249;SDS011;1637;42.020;23.992;2023-09-07T02:33:18;24.03;;;16.10;;
3249;SDS011;1637;42.020;23.992;2023-09-07T02:35:45;23.93;;;17.23;;
3249;SDS011;1637;42.020;23.992;2023-09-07T02:38:13;21.20;;;15.90;;
3249;SDS011;1637;42.020;23.992;2023-09-07T02:40:40;22.63;;;14.50;;
3249;SDS011;1637;42.020;23.992;2023-09-07T02:43:08;14.63;;;12.27;;
3249;SDS011;1637;42.020;23.992;2023-09-07T02:45:35;20.07;;;14.23;;
3249;SDS011;1637;42.020;23.992;2023-09-07T02:48:03;18.20;;;13.80;;
3249;SDS011;1637;42.020;23.992;2023-09-07T02:53:26;21.23;;;14.70;;
3249;SDS011;1637;42.020;23.992;2023-09-07T02:55:53;20.33;;;15.50;;
3249;SDS011;1637;42.020;23.992;2023-09-07T02:58:20;24.23;;;16.13;;
3249;SDS011;1637;42.020;23.992;2023-09-07T03:00:47;21.20;;;15.93;;
3249;SDS011;1637;42.020;23.992;2023-09-07T03:03:15;25.53;;;14.73;;
3249;SDS011;1637;42.020;23.992;2023-09-07T03:05:42;20.87;;;15.77;;
3249;SDS011;1637;42.020;23.992;2023-09-07T03:08:10;23.13;;;15.57;;
3249;SDS011;1637;42.020;23.992;2023-09-07T03:10:37;19.37;;;13.90;;
3249;SDS011;1637;42.020;23.992;2023-09-07T03:13:04;19.50;;;14.80;;
3249;SDS011;1637;42.020;23.992;2023-09-07T03:15:31;19.57;;;15.47;;
3249;SDS011;1637;42.020;23.992;2023-09-07T03:17:58;22.80;;;16.30;;
3249;SDS011;1637;42.020;23.992;2023-09-07T03:20:27;23.00;;;15.10;;
3249;SDS011;1637;42.020;23.992;2023-09-07T03:22:54;22.07;;;17.20;;
3249;SDS011;1637;42.020;23.992;2023-09-07T03:25:22;15.90;;;13.20;;
3249;SDS011;1637;42.020;23.992;2023-09-07T03:27:49;21.43;;;15.10;;
3249;SDS011;1637;42.020;23.992;2023-09-07T03:30:16;21.00;;;14.53;;
3249;SDS011;1637;42.020;23.992;2023-09-07T03:32:43;19.00;;;14.23;;
3249;SDS011;1637;42.020;23.992;2023-09-07T03:35:10;31.70;;;19.20;;
3249;SDS011;1637;42.020;23.992;2023-09-07T03:37:38;22.70;;;17.37;;
3249;SDS011;1637;42.020;23.992;2023-09-07T03:40:05;29.03;;;19.73;;
3249;SDS011;1637;42.020;23.992;2023-09-07T03:42:34;32.80;;;22.17;;
3249;SDS011;1637;42.020;23.992;2023-09-07T03:45:01;99.30;;;90.27;;
3249;SDS011;1637;42.020;23.992;2023-09-07T03:47:29;23.43;;;17.97;;
3249;SDS011;1637;42.020;23.992;2023-09-07T03:49:55;25.20;;;16.47;;
3249;SDS011;1637;42.020;23.992;2023-09-07T03:52:24;21.33;;;14.23;;
3249;SDS011;1637;42.020;23.992;2023-09-07T03:54:53;33.77;;;18.67;;
3249;SDS011;1637;42.020;23.992;2023-09-07T03:57:20;21.80;;;14.63;;
3249;SDS011;1637;42.020;23.992;2023-09-07T03:59:47;36.47;;;26.07;;
3249;SDS011;1637;42.020;23.992;2023-09-07T04:02:14;20.33;;;12.70;;
3249;SDS011;1637;42.020;23.992;2023-09-07T04:04:42;20.27;;;11.60;;
3249;SDS011;1637;42.020;23.992;2023-09-07T04:07:09;22.70;;;12.77;;
3249;SDS011;1637;42.020;23.992;2023-09-07T04:09:36;23.07;;;11.77;;
3249;SDS011;1637;42.020;23.992;2023-09-07T04:12:05;18.03;;;11.37;;
3249;SDS011;1637;42.020;23.992;2023-09-07T04:14:32;19.80;;;15.43;;
3249;SDS011;1637;42.020;23.992;2023-09-07T04:16:59;35.83;;;25.60;;
3249;SDS011;1637;42.020;23.992;2023-09-07T04:19:26;47.23;;;34.83;;
3249;SDS011;1637;42.020;23.992;2023-09-07T04:21:53;55.53;;;38.70;;
3249;SDS011;1637;42.020;23.992;2023-09-07T04:24:19;32.03;;;23.90;;
3249;SDS011;1637;42.020;23.992;2023-09-07T04:26:47;41.93;;;24.47;;
3249;SDS011;1637;42.020;23.992;2023-09-07T04:29:15;17.63;;;10.77;;
3249;SDS011;1637;42.020;23.992;2023-09-07T04:31:42;24.10;;;13.60;;
3249;SDS011;1637;42.020;23.992;2023-09-07T04:34:09;17.77;;;10.40;;
3249;SDS011;1637;42.020;23.992;2023-09-07T04:36:36;75.30;;;37.27;;
3249;SDS011;1637;42.020;23.992;2023-09-07T04:39:03;225.63;;;102.33;;
3249;SDS011;1637;42.020;23.992;2023-09-07T04:41:30;237.33;;;110.17;;
3249;SDS011;1637;42.020;23.992;2023-09-07T04:43:57;158.83;;;75.43;;
3249;SDS011;1637;42.020;23.992;2023-09-07T04:46:25;390.40;;;177.80;;
3249;SDS011;1637;42.020;23.992;2023-09-07T04:48:52;239.33;;;111.53;;
3249;SDS011;1637;42.020;23.992;2023-09-07T04:51:18;130.03;;;61.00;;
3249;SDS011;1637;42.020;23.992;2023-09-07T04:53:47;33.20;;;18.70;;
3249;SDS011;1637;42.020;23.992;2023-09-07T04:56:14;111.67;;;45.47;;
3249;SDS011;1637;42.020;23.992;2023-09-07T04:58:41;593.27;;;252.37;;
3249;SDS011;1637;42.020;23.992;2023-09-07T05:01:09;262.70;;;96.93;;
3249;SDS011;1637;42.020;23.992;2023-09-07T05:03:39;94.47;;;37.20;;
3249;SDS011;1637;42.020;23.992;2023-09-07T05:06:06;23.73;;;14.83;;
3249;SDS011;1637;42.020;23.992;2023-09-07T05:08:33;14.23;;;9.57;;
3249;SDS011;1637;42.020;23.992;2023-09-07T05:11:00;13.27;;;8.83;;
3249;SDS011;1637;42.020;23.992;2023-09-07T05:13:28;11.60;;;10.40;;
3249;SDS011;1637;42.020;23.992;2023-09-07T05:15:56;17.43;;;10.27;;
3249;SDS011;1637;42.020;23.992;2023-09-07T05:18:24;35.57;;;15.93;;
3249;SDS011;1637;42.020;23.992;2023-09-07T05:20:52;26.77;;;16.70;;
3249;SDS011;1637;42.020;23.992;2023-09-07T05:23:19;19.70;;;14.70;;
3249;SDS011;1637;42.020;23.992;2023-09-07T05:25:47;19.43;;;14.90;;
3249;SDS011;1637;42.020;23.992;2023-09-07T05:28:15;18.97;;;13.30;;
3249;SDS011;1637;42.020;23.992;2023-09-07T05:30:42;15.50;;;11.70;;
3249;SDS011;1637;42.020;23.992;2023-09-07T05:33:10;17.50;;;13.90;;
3249;SDS011;1637;42.020;23.992;2023-09-07T05:35:37;18.83;;;13.40;;
3249;SDS011;1637;42.020;23.992;2023-09-07T05:38:06;38.43;;;26.93;;
3249;SDS011;1637;42.020;23.992;2023-09-07T05:40:33;15.20;;;10.30;;
3249;SDS011;1637;42.020;23.992;2023-09-07T05:43:01;15.73;;;10.97;;
3249;SDS011;1637;42.020;23.992;2023-09-07T05:45:29;16.13;;;10.40;;
3249;SDS011;1637;42.020;23.992;2023-09-07T05:47:56;12.83;;;10.20;;
3249;SDS011;1637;42.020;23.992;2023-09-07T05:50:22;12.83;;;8.67;;
3249;SDS011;1637;42.020;23.992;2023-09-07T05:52:49;16.43;;;10.07;;
3249;SDS011;1637;42.020;23.992;2023-09-07T05:55:18;25.70;;;9.97;;
3249;SDS011;1637;42.020;23.992;2023-09-07T05:57:44;15.60;;;9.90;;
3249;SDS011;1637;42.020;23.992;2023-09-07T06:00:12;25.07;;;10.90;;
3249;SDS011;1637;42.020;23.992;2023-09-07T06:02:40;11.60;;;9.40;;
3249;SDS011;1637;42.020;23.992;2023-09-07T06:05:07;17.37;;;8.17;;
3249;SDS011;1637;42.020;23.992;2023-09-07T06:07:35;22.30;;;9.70;;
3249;SDS011;1637;42.020;23.992;2023-09-07T06:10:03;44.70;;;26.60;;
3249;SDS011;1637;42.020;23.992;2023-09-07T06:12:33;36.73;;;25.33;;
3249;SDS011;1637;42.020;23.992;2023-09-07T06:15:00;43.07;;;21.00;;
3249;SDS011;1637;42.020;23.992;2023-09-07T06:17:28;22.63;;;12.60;;
3249;SDS011;1637;42.020;23.992;2023-09-07T06:19:55;22.60;;;10.47;;
3249;SDS011;1637;42.020;23.992;2023-09-07T06:22:22;22.03;;;10.70;;
3249;SDS011;1637;42.020;23.992;2023-09-07T06:24:49;18.40;;;10.30;;
3249;SDS011;1637;42.020;23.992;2023-09-07T06:27:16;29.23;;;16.27;;
3249;SDS011;1637;42.020;23.992;2023-09-07T06:29:44;19.10;;;15.97;;
3249;SDS011;1637;42.020;23.992;2023-09-07T06:32:11;66.80;;;19.50;;
3249;SDS011;1637;42.020;23.992;2023-09-07T06:34:38;21.93;;;12.60;;
3249;SDS011;1637;42.020;23.992;2023-09-07T06:37:05;21.73;;;13.50;;
3249;SDS011;1637;42.020;23.992;2023-09-07T06:39:32;14.30;;;9.50;;
3249;SDS011;1637;42.020;23.992;2023-09-07T06:41:59;16.63;;;10.50;;
3249;SDS011;1637;42.020;23.992;2023-09-07T06:44:26;18.20;;;10.63;;
3249;SDS011;1637;42.020;23.992;2023-09-07T06:46:54;24.67;;;10.60;;
3249;SDS011;1637;42.020;23.992;2023-09-07T06:49:21;16.97;;;8.30;;
3249;SDS011;1637;42.020;23.992;2023-09-07T06:51:48;16.03;;;7.63;;
3249;SDS011;1637;42.020;23.992;2023-09-07T06:54:15;8.47;;;6.80;;
3249;SDS011;1637;42.020;23.992;2023-09-07T06:56:42;11.00;;;5.47;;
3249;SDS011;1637;42.020;23.992;2023-09-07T06:59:08;10.97;;;5.63;;
3249;SDS011;1637;42.020;23.992;2023-09-07T07:01:35;9.40;;;5.93;;
3249;SDS011;1637;42.020;23.992;2023-09-07T07:04:03;14.50;;;6.47;;
3249;SDS011;1637;42.020;23.992;2023-09-07T07:06:30;7.90;;;5.57;;
3249;SDS011;1637;42.020;23.992;2023-09-07T07:08:57;7.13;;;4.80;;
3249;SDS011;1637;42.020;23.992;2023-09-07T07:11:24;15.50;;;6.73;;
3249;SDS011;1637;42.020;23.992;2023-09-07T07:13:51;16.73;;;6.03;;
3249;SDS011;1637;42.020;23.992;2023-09-07T07:16:17;10.30;;;6.70;;
3249;SDS011;1637;42.020;23.992;2023-09-07T07:18:44;7.53;;;4.10;;
3249;SDS011;1637;42.020;23.992;2023-09-07T07:21:12;4.50;;;3.10;;
3249;SDS011;1637;42.020;23.992;2023-09-07T07:23:40;10.77;;;5.90;;
3249;SDS011;1637;42.020;23.992;2023-09-07T07:26:07;8.50;;;5.67;;
3249;SDS011;1637;42.020;23.992;2023-09-07T07:28:34;11.00;;;4.17;;
3249;SDS011;1637;42.020;23.992;2023-09-07T07:31:06;15.10;;;6.27;;
3249;SDS011;1637;42.020;23.992;2023-09-07T07:33:34;18.80;;;7.90;;
3249;SDS011;1637;42.020;23.992;2023-09-07T07:36:02;15.07;;;6.60;;
3249;SDS011;1637;42.020;23.992;2023-09-07T07:38:31;18.00;;;9.40;;
3249;SDS011;1637;42.020;23.992;2023-09-07T07:40:57;36.70;;;6.47;;
3249;SDS011;1637;42.020;23.992;2023-09-07T07:43:24;7.47;;;3.53;;
3249;SDS011;1637;42.020;23.992;2023-09-07T07:45:51;15.33;;;4.60;;
3249;SDS011;1637;42.020;23.992;2023-09-07T07:48:18;31.10;;;6.30;;
3249;SDS011;1637;42.020;23.992;2023-09-07T07:50:45;16.97;;;4.90;;
3249;SDS011;1637;42.020;23.992;2023-09-07T07:53:12;19.03;;;4.40;;
3249;SDS011;1637;42.020;23.992;2023-09-07T07:55:41;23.00;;;5.00;;
3249;SDS011;1637;42.020;23.992;2023-09-07T07:58:08;9.13;;;4.00;;
3249;SDS011;1637;42.020;23.992;2023-09-07T08:00:35;9.97;;;4.50;;
3249;SDS011;1637;42.020;23.992;2023-09-07T08:03:03;12.10;;;5.37;;
3249;SDS011;1637;42.020;23.992;2023-09-07T08:05:31;4.00;;;3.50;;
3249;SDS011;1637;42.020;23.992;2023-09-07T08:07:57;13.10;;;4.60;;
3249;SDS011;1637;42.020;23.992;2023-09-07T08:10:24;9.97;;;4.90;;
3249;SDS011;1637;42.020;23.992;2023-09-07T08:12:54;7.10;;;4.77;;
3249;SDS011;1637;42.020;23.992;2023-09-07T08:15:21;6.33;;;4.40;;
3249;SDS011;1637;42.020;23.992;2023-09-07T08:17:50;11.40;;;5.33;;
3249;SDS011;1637;42.020;23.992;2023-09-07T08:20:17;12.27;;;6.07;;
3249;SDS011;1637;42.020;23.992;2023-09-07T08:22:44;16.10;;;4.33;;
3249;SDS011;1637;42.020;23.992;2023-09-07T08:25:11;16.50;;;5.20;;
3249;SDS011;1637;42.020;23.992;2023-09-07T08:27:38;6.73;;;4.13;;
3249;SDS011;1637;42.020;23.992;2023-09-07T08:30:10;8.43;;;4.17;;
3249;SDS011;1637;42.020;23.992;2023-09-07T08:32:38;14.37;;;5.23;;
3249;SDS011;1637;42.020;23.992;2023-09-07T08:35:05;9.33;;;4.70;;
3249;SDS011;1637;42.020;23.992;2023-09-07T08:37:34;16.33;;;4.20;;
3249;SDS011;1637;42.020;23.992;2023-09-07T08:40:01;6.63;;;4.73;;
3249;SDS011;1637;42.020;23.992;2023-09-07T08:42:29;11.53;;;4.10;;
3249;SDS011;1637;42.020;23.992;2023-09-07T08:44:56;10.40;;;5.27;;
3249;SDS011;1637;42.020;23.992;2023-09-07T08:47:33;5.67;;;5.07;;
3249;SDS011;1637;42.020;23.992;2023-09-07T08:50:00;6.90;;;3.80;;
3249;SDS011;1637;42.020;23.992;2023-09-07T08:52:28;12.43;;;5.03;;
3249;SDS011;1637;42.020;23.992;2023-09-07T08:54:55;8.33;;;4.33;;
3249;SDS011;1637;42.020;23.992;2023-09-07T08:57:26;7.70;;;4.80;;
3249;SDS011;1637;42.020;23.992;2023-09-07T08:59:53;10.97;;;4.83;;
3249;SDS011;1637;42.020;23.992;2023-09-07T09:02:20;8.77;;;6.23;;
3249;SDS011;1637;42.020;23.992;2023-09-07T09:04:48;5.20;;;4.70;;
3249;SDS011;1637;42.020;23.992;2023-09-07T09:07:15;6.47;;;4.50;;
3249;SDS011;1637;42.020;23.992;2023-09-07T09:09:42;8.37;;;4.97;;
3249;SDS011;1637;42.020;23.992;2023-09-07T09:12:09;13.87;;;7.47;;
3249;SDS011;1637;42.020;23.992;2023-09-07T09:14:37;13.80;;;5.90;;
3249;SDS011;1637;42.020;23.992;2023-09-07T09:17:05;8.03;;;6.20;;
3249;SDS011;1637;42.020;23.992;2023-09-07T09:19:32;13.10;;;7.10;;
3249;SDS011;1637;42.020;23.992;2023-09-07T09:22:01;14.10;;;8.40;;
3249;SDS011;1637;42.020;23.992;2023-09-07T09:24:31;18.80;;;6.33;;
3249;SDS011;1637;42.020;23.992;2023-09-07T09:26:59;17.93;;;8.07;;
3249;SDS011;1637;42.020;23.992;2023-09-07T09:29:26;10.30;;;6.07;;
3249;SDS011;1637;42.020;23.992;2023-09-07T09:31:53;8.43;;;5.50;;
3249;SDS011;1637;42.020;23.992;2023-09-07T09:34:20;12.23;;;5.60;;
3249;SDS011;1637;42.020;23.992;2023-09-07T09:36:47;10.00;;;7.20;;
3249;SDS011;1637;42.020;23.992;2023-09-07T09:39:22;7.80;;;5.33;;
3249;SDS011;1637;42.020;23.992;2023-09-07T09:41:50;10.40;;;5.87;;
3249;SDS011;1637;42.020;23.992;2023-09-07T09:44:18;14.43;;;5.33;;
3249;SDS011;1637;42.020;23.992;2023-09-07T09:46:50;11.60;;;7.27;;
3249;SDS011;1637;42.020;23.992;2023-09-07T09:49:18;7.63;;;6.70;;
3249;SDS011;1637;42.020;23.992;2023-09-07T09:51:46;9.83;;;6.20;;
3249;SDS011;1637;42.020;23.992;2023-09-07T09:54:14;10.90;;;5.87;;
3249;SDS011;1637;42.020;23.992;2023-09-07T09:56:44;7.73;;;6.47;;
3249;SDS011;1637;42.020;23.992;2023-09-07T09:59:11;17.00;;;7.33;;
3249;SDS011;1637;42.020;23.992;2023-09-07T10:01:40;7.90;;;6.50;;
3249;SDS011;1637;42.020;23.992;2023-09-07T10:04:10;12.43;;;5.60;;
3249;SDS011;1637;42.020;23.992;2023-09-07T10:06:49;10.03;;;7.00;;
3249;SDS011;1637;42.020;23.992;2023-09-07T10:09:17;11.03;;;5.13;;
3249;SDS011;1637;42.020;23.992;2023-09-07T10:11:50;5.90;;;5.30;;
3249;SDS011;1637;42.020;23.992;2023-09-07T10:14:19;12.07;;;6.40;;
3249;SDS011;1637;42.020;23.992;2023-09-07T10:16:47;12.00;;;6.00;;
3249;SDS011;1637;42.020;23.992;2023-09-07T10:19:16;13.83;;;8.67;;
3249;SDS011;1637;42.020;23.992;2023-09-07T10:21:44;8.07;;;6.63;;
3249;SDS011;1637;42.020;23.992;2023-09-07T10:24:11;9.87;;;5.90;;
3249;SDS011;1637;42.020;23.992;2023-09-07T10:26:56;8.13;;;7.23;;
3249;SDS011;1637;42.020;23.992;2023-09-07T10:29:24;9.20;;;8.30;;
3249;SDS011;1637;42.020;23.992;2023-09-07T10:31:51;9.70;;;6.40;;
3249;SDS011;1637;42.020;23.992;2023-09-07T10:34:18;8.00;;;4.67;;
3249;SDS011;1637;42.020;23.992;2023-09-07T10:36:47;13.87;;;5.30;;
3249;SDS011;1637;42.020;23.992;2023-09-07T10:39:16;13.73;;;6.87;;
3249;SDS011;1637;42.020;23.992;2023-09-07T10:41:43;11.40;;;4.83;;
3249;SDS011;1637;42.020;23.992;2023-09-07T10:44:12;6.90;;;5.60;;
3249;SDS011;1637;42.020;23.992;2023-09-07T10:46:39;8.17;;;6.07;;
3249;SDS011;1637;42.020;23.992;2023-09-07T10:49:06;9.13;;;5.83;;
3249;SDS011;1637;42.020;23.992;2023-09-07T10:51:39;8.33;;;6.00;;
3249;SDS011;1637;42.020;23.992;2023-09-07T10:54:14;20.13;;;12.87;;
3249;SDS011;1637;42.020;23.992;2023-09-07T10:56:43;9.43;;;6.10;;
3249;SDS011;1637;42.020;23.992;2023-09-07T10:59:13;9.77;;;6.30;;
3249;SDS011;1637;42.020;23.992;2023-09-07T11:01:40;7.83;;;5.30;;
3249;SDS011;1637;42.020;23.992;2023-09-07T11:04:07;6.50;;;4.13;;
3249;SDS011;1637;42.020;23.992;2023-09-07T11:06:36;9.63;;;6.40;;
3249;SDS011;1637;42.020;23.992;2023-09-07T11:09:03;7.00;;;5.27;;
3249;SDS011;1637;42.020;23.992;2023-09-07T11:11:33;15.60;;;5.47;;
3249;SDS011;1637;42.020;23.992;2023-09-07T11:14:01;10.80;;;4.80;;
3249;SDS011;1637;42.020;23.992;2023-09-07T11:16:30;7.37;;;4.67;;
3249;SDS011;1637;42.020;23.992;2023-09-07T11:18:57;10.47;;;5.60;;
3249;SDS011;1637;42.020;23.992;2023-09-07T11:21:25;5.80;;;4.80;;
3249;SDS011;1637;42.020;23.992;2023-09-07T11:23:52;7.83;;;4.87;;
3249;SDS011;1637;42.020;23.992;2023-09-07T11:26:19;8.97;;;4.80;;
3249;SDS011;1637;42.020;23.992;2023-09-07T11:28:48;6.53;;;5.23;;
3249;SDS011;1637;42.020;23.992;2023-09-07T11:31:17;12.40;;;5.33;;
3249;SDS011;1637;42.020;23.992;2023-09-07T11:33:47;5.43;;;3.70;;
3249;SDS011;1637;42.020;23.992;2023-09-07T11:36:14;6.70;;;4.23;;
3249;SDS011;1637;42.020;23.992;2023-09-07T11:38:42;27.20;;;5.50;;
3249;SDS011;1637;42.020;23.992;2023-09-07T11:41:10;8.70;;;4.30;;
3249;SDS011;1637;42.020;23.992;2023-09-07T11:43:37;5.47;;;3.60;;
3249;SDS011;1637;42.020;23.992;2023-09-07T11:46:05;5.57;;;3.90;;
3249;SDS011;1637;42.020;23.992;2023-09-07T11:48:32;9.13;;;3.90;;
3249;SDS011;1637;42.020;23.992;2023-09-07T11:51:00;6.90;;;4.00;;
3249;SDS011;1637;42.020;23.992;2023-09-07T11:53:28;10.40;;;4.03;;
3249;SDS011;1637;42.020;23.992;2023-09-07T11:55:55;16.37;;;5.50;;
3249;SDS011;1637;42.020;23.992;2023-09-07T11:58:23;23.07;;;12.13;;
3249;SDS011;1637;42.020;23.992;2023-09-07T12:00:51;9.63;;;3.77;;
3249;SDS011;1637;42.020;23.992;2023-09-07T12:03:19;11.20;;;4.13;;
3249;SDS011;1637;42.020;23.992;2023-09-07T12:05:45;12.00;;;4.40;;
3249;SDS011;1637;42.020;23.992;2023-09-07T12:08:13;19.07;;;7.83;;
3249;SDS011;1637;42.020;23.992;2023-09-07T12:10:40;10.27;;;5.17;;
3249;SDS011;1637;42.020;23.992;2023-09-07T12:13:07;4.87;;;3.30;;
3249;SDS011;1637;42.020;23.992;2023-09-07T12:15:34;5.27;;;3.90;;
3249;SDS011;1637;42.020;23.992;2023-09-07T12:18:01;16.60;;;4.10;;
3249;SDS011;1637;42.020;23.992;2023-09-07T12:20:28;13.87;;;4.10;;
3249;SDS011;1637;42.020;23.992;2023-09-07T12:22:55;7.23;;;4.40;;
3249;SDS011;1637;42.020;23.992;2023-09-07T12:25:23;7.37;;;4.93;;
3249;SDS011;1637;42.020;23.992;2023-09-07T12:27:50;4.93;;;3.97;;
3249;SDS011;1637;42.020;23.992;2023-09-07T12:30:17;8.90;;;5.33;;
3249;SDS011;1637;42.020;23.992;2023-09-07T12:32:45;17.73;;;4.33;;
3249;SDS011;1637;42.020;23.992;2023-09-07T12:35:12;7.50;;;4.23;;
3249;SDS011;1637;42.020;23.992;2023-09-07T12:37:40;5.43;;;4.67;;
3249;SDS011;1637;42.020;23.992;2023-09-07T12:40:07;11.60;;;4.83;;
3249;SDS011;1637;42.020;23.992;2023-09-07T12:42:39;8.50;;;4.77;;
3249;SDS011;1637;42.020;23.992;2023-09-07T12:45:07;26.40;;;7.67;;
3249;SDS011;1637;42.020;23.992;2023-09-07T12:47:35;6.40;;;4.10;;
3249;SDS011;1637;42.020;23.992;2023-09-07T12:50:03;9.03;;;5.37;;
3249;SDS011;1637;42.020;23.992;2023-09-07T12:52:30;8.63;;;5.00;;
3249;SDS011;1637;42.020;23.992;2023-09-07T12:54:57;9.53;;;5.20;;
3249;SDS011;1637;42.020;23.992;2023-09-07T12:57:24;18.70;;;5.70;;
3249;SDS011;1637;42.020;23.992;2023-09-07T12:59:52;11.53;;;5.37;;
3249;SDS011;1637;42.020;23.992;2023-09-07T13:02:19;13.37;;;4.97;;
3249;SDS011;1637;42.020;23.992;2023-09-07T13:04:45;11.37;;;7.13;;
3249;SDS011;1637;42.020;23.992;2023-09-07T13:07:13;10.07;;;5.00;;
3249;SDS011;1637;42.020;23.992;2023-09-07T13:09:42;13.40;;;7.63;;
3249;SDS011;1637;42.020;23.992;2023-09-07T13:12:09;13.83;;;5.90;;
3249;SDS011;1637;42.020;23.992;2023-09-07T13:14:36;13.90;;;9.40;;
3249;SDS011;1637;42.020;23.992;2023-09-07T13:17:04;13.20;;;6.20;;
3249;SDS011;1637;42.020;23.992;2023-09-07T13:19:31;13.63;;;6.80;;
3249;SDS011;1637;42.020;23.992;2023-09-07T13:21:58;42.43;;;21.70;;
3249;SDS011;1637;42.020;23.992;2023-09-07T13:24:25;16.73;;;7.50;;
3249;SDS011;1637;42.020;23.992;2023-09-07T13:26:52;7.33;;;5.00;;
3249;SDS011;1637;42.020;23.992;2023-09-07T13:29:18;11.27;;;6.60;;
3249;SDS011;1637;42.020;23.992;2023-09-07T13:31:44;21.00;;;12.50;;
3249;SDS011;1637;42.020;23.992;2023-09-07T13:34:12;18.07;;;8.07;;
3249;SDS011;1637;42.020;23.992;2023-09-07T13:36:39;10.30;;;6.00;;
3249;SDS011;1637;42.020;23.992;2023-09-07T13:39:06;37.07;;;22.33;;
3249;SDS011;1637;42.020;23.992;2023-09-07T13:41:33;10.13;;;6.87;;
3249;SDS011;1637;42.020;23.992;2023-09-07T13:44:00;45.73;;;25.80;;
3249;SDS011;1637;42.020;23.992;2023-09-07T13:46:26;7.80;;;5.17;;
3249;SDS011;1637;42.020;23.992;2023-09-07T13:48:54;7.67;;;4.90;;
3249;SDS011;1637;42.020;23.992;2023-09-07T13:51:22;7.90;;;5.70;;
3249;SDS011;1637;42.020;23.992;2023-09-07T13:53:49;12.10;;;6.50;;
3249;SDS011;1637;42.020;23.992;2023-09-07T13:56:16;16.63;;;7.37;;
3249;SDS011;1637;42.020;23.992;2023-09-07T13:58:44;15.73;;;7.27;;
3249;SDS011;1637;42.020;23.992;2023-09-07T14:01:11;15.57;;;6.50;;
3249;SDS011;1637;42.020;23.992;2023-09-07T14:03:38;11.20;;;5.23;;
3249;SDS011;1637;42.020;23.992;2023-09-07T14:06:04;7.53;;;5.40;;
3249;SDS011;1637;42.020;23.992;2023-09-07T14:08:32;11.20;;;6.27;;
3249;SDS011;1637;42.020;23.992;2023-09-07T14:10:59;18.10;;;5.90;;
3249;SDS011;1637;42.020;23.992;2023-09-07T14:13:26;11.67;;;5.20;;
3249;SDS011;1637;42.020;23.992;2023-09-07T14:15:53;17.07;;;6.77;;
3249;SDS011;1637;42.020;23.992;2023-09-07T14:18:20;11.77;;;7.07;;
3249;SDS011;1637;42.020;23.992;2023-09-07T14:20:47;10.10;;;6.10;;
3249;SDS011;1637;42.020;23.992;2023-09-07T14:23:13;16.40;;;6.87;;
3249;SDS011;1637;42.020;23.992;2023-09-07T14:25:42;8.30;;;5.80;;
3249;SDS011;1637;42.020;23.992;2023-09-07T14:28:10;19.20;;;9.80;;
3249;SDS011;1637;42.020;23.992;2023-09-07T14:30:37;7.80;;;6.10;;
3249;SDS011;1637;42.020;23.992;2023-09-07T14:33:04;13.90;;;7.87;;
3249;SDS011;1637;42.020;23.992;2023-09-07T14:35:31;8.83;;;7.47;;
3249;SDS011;1637;42.020;23.992;2023-09-07T14:37:58;19.50;;;7.70;;
3249;SDS011;1637;42.020;23.992;2023-09-07T14:40:25;25.80;;;10.13;;
3249;SDS011;1637;42.020;23.992;2023-09-07T14:43:03;22.90;;;11.40;;
3249;SDS011;1637;42.020;23.992;2023-09-07T14:45:48;23.07;;;10.10;;
3249;SDS011;1637;42.020;23.992;2023-09-07T14:48:15;19.63;;;10.23;;